sensor_id;sensor_type;location;lat;lon;timestamp;P1;durP1;ratioP1;P2;durP2;ratioP2
63492;SDS011;49638;47.526;10.028;2024-03-29T00:00:24;0.55;;;0.32;;
63492;SDS011;49638;47.526;10.028;2024-03-29T00:03:24;0.73;;;0.30;;
63492;SDS011;49638;47.526;10.028;2024-03-29T00:06:24;1.40;;;0.40;;
63492;SDS011;49638;47.526;10.028;2024-03-29T00:09:25;0.63;;;0.40;;
63492;SDS011;49638;47.526;10.028;2024-03-29T00:12:25;1.00;;;0.40;;
63492;SDS011;49638;47.526;10.028;2024-03-29T00:15:25;1.00;;;0.30;;
63492;SDS011;49638;47.526;10.028;2024-03-29T00:18:25;0.38;;;0.30;;
63492;SDS011;49638;47.526;10.028;2024-03-29T00:21:25;0.30;;;0.30;;
63492;SDS011;49638;47.526;10.028;2024-03-29T00:24:26;0.57;;;0.40;;
63492;SDS011;49638;47.526;10.028;2024-03-29T00:27:26;0.25;;;0.25;;
63492;SDS011;49638;47.526;10.028;2024-03-29T00:30:28;0.25;;;0.25;;
63492;SDS011;49638;47.526;10.028;2024-03-29T00:33:28;1.38;;;0.32;;
63492;SDS011;49638;47.526;10.028;2024-03-29T00:36:28;0.82;;;0.30;;
63492;SDS011;49638;47.526;10.028;2024-03-29T00:39:29;1.20;;;0.32;;
63492;SDS011;49638;47.526;10.028;2024-03-29T00:42:29;0.30;;;0.22;;
63492;SDS011;49638;47.526;10.028;2024-03-29T00:45:29;0.20;;;0.20;;
63492;SDS011;49638;47.526;10.028;2024-03-29T00:48:29;0.60;;;0.38;;
63492;SDS011;49638;47.526;10.028;2024-03-29T00:51:30;1.00;;;0.50;;
63492;SDS011;49638;47.526;10.028;2024-03-29T00:54:30;0.38;;;0.30;;
63492;SDS011;49638;47.526;10.028;2024-03-29T00:57:31;1.30;;;0.25;;
63492;SDS011;49638;47.526;10.028;2024-03-29T01:00:31;0.20;;;0.20;;
63492;SDS011;49638;47.526;10.028;2024-03-29T01:03:31;0.52;;;0.28;;
63492;SDS011;49638;47.526;10.028;2024-03-29T01:06:32;0.20;;;0.20;;
63492;SDS011;49638;47.526;10.028;2024-03-29T01:09:32;0.45;;;0.22;;
63492;SDS011;49638;47.526;10.028;2024-03-29T01:12:33;0.73;;;0.30;;
63492;SDS011;49638;47.526;10.028;2024-03-29T01:15:33;0.22;;;0.22;;
63492;SDS011;49638;47.526;10.028;2024-03-29T01:18:33;0.77;;;0.30;;
63492;SDS011;49638;47.526;10.028;2024-03-29T01:21:33;0.98;;;0.22;;
63492;SDS011;49638;47.526;10.028;2024-03-29T01:24:34;0.55;;;0.20;;
63492;SDS011;49638;47.526;10.028;2024-03-29T01:27:34;0.93;;;0.30;;
63492;SDS011;49638;47.526;10.028;2024-03-29T01:30:34;0.20;;;0.20;;
63492;SDS011;49638;47.526;10.028;2024-03-29T01:33:35;0.30;;;0.30;;
63492;SDS011;49638;47.526;10.028;2024-03-29T01:36:37;0.22;;;0.15;;
63492;SDS011;49638;47.526;10.028;2024-03-29T01:39:38;0.30;;;0.28;;
63492;SDS011;49638;47.526;10.028;2024-03-29T01:42:38;0.75;;;0.40;;
63492;SDS011;49638;47.526;10.028;2024-03-29T01:45:39;0.47;;;0.20;;
63492;SDS011;49638;47.526;10.028;2024-03-29T01:48:40;0.30;;;0.20;;
63492;SDS011;49638;47.526;10.028;2024-03-29T01:51:41;0.28;;;0.28;;
63492;SDS011;49638;47.526;10.028;2024-03-29T01:54:41;0.13;;;0.13;;
63492;SDS011;49638;47.526;10.028;2024-03-29T01:57:42;1.38;;;0.70;;
63492;SDS011;49638;47.526;10.028;2024-03-29T02:00:47;2.20;;;0.20;;
63492;SDS011;49638;47.526;10.028;2024-03-29T02:03:51;1.52;;;0.40;;
63492;SDS011;49638;47.526;10.028;2024-03-29T02:06:51;0.28;;;0.28;;
63492;SDS011;49638;47.526;10.028;2024-03-29T02:09:52;0.30;;;0.20;;
63492;SDS011;49638;47.526;10.028;2024-03-29T02:12:52;0.20;;;0.10;;
63492;SDS011;49638;47.526;10.028;2024-03-29T02:15:52;0.60;;;0.28;;
63492;SDS011;49638;47.526;10.028;2024-03-29T02:18:53;0.30;;;0.30;;
63492;SDS011;49638;47.526;10.028;2024-03-29T02:21:53;1.00;;;0.43;;
63492;SDS011;49638;47.526;10.028;2024-03-29T02:24:58;0.30;;;0.30;;
63492;SDS011;49638;47.526;10.028;2024-03-29T02:27:59;0.52;;;0.35;;
63492;SDS011;49638;47.526;10.028;2024-03-29T02:31:01;0.30;;;0.28;;
63492;SDS011;49638;47.526;10.028;2024-03-29T02:34:01;0.30;;;0.30;;
63492;SDS011;49638;47.526;10.028;2024-03-29T02:37:01;1.20;;;0.30;;
63492;SDS011;49638;47.526;10.028;2024-03-29T02:40:02;0.20;;;0.20;;
63492;SDS011;49638;47.526;10.028;2024-03-29T02:43:03;0.20;;;0.20;;
63492;SDS011;49638;47.526;10.028;2024-03-29T02:46:04;0.15;;;0.15;;
63492;SDS011;49638;47.526;10.028;2024-03-29T02:49:04;0.10;;;0.10;;
63492;SDS011;49638;47.526;10.028;2024-03-29T02:52:04;0.13;;;0.13;;
63492;SDS011;49638;47.526;10.028;2024-03-29T02:55:05;0.35;;;0.20;;
63492;SDS011;49638;47.526;10.028;2024-03-29T02:58:05;0.28;;;0.20;;
63492;SDS011;49638;47.526;10.028;2024-03-29T03:01:06;0.20;;;0.10;;
63492;SDS011;49638;47.526;10.028;2024-03-29T03:04:09;2.45;;;0.30;;
63492;SDS011;49638;47.526;10.028;2024-03-29T03:07:10;0.20;;;0.20;;
63492;SDS011;49638;47.526;10.028;2024-03-29T03:10:28;0.22;;;0.20;;
63492;SDS011;49638;47.526;10.028;2024-03-29T03:13:47;0.30;;;0.13;;
63492;SDS011;49638;47.526;10.028;2024-03-29T03:16:47;0.28;;;0.20;;
63492;SDS011;49638;47.526;10.028;2024-03-29T03:19:50;0.70;;;0.30;;
63492;SDS011;49638;47.526;10.028;2024-03-29T03:22:51;0.45;;;0.20;;
63492;SDS011;49638;47.526;10.028;2024-03-29T03:25:54;0.38;;;0.10;;
63492;SDS011;49638;47.526;10.028;2024-03-29T03:28:55;0.30;;;0.30;;
63492;SDS011;49638;47.526;10.028;2024-03-29T03:31:56;0.38;;;0.20;;
63492;SDS011;49638;47.526;10.028;2024-03-29T03:34:56;0.28;;;0.20;;
63492;SDS011;49638;47.526;10.028;2024-03-29T03:37:56;0.20;;;0.20;;
63492;SDS011;49638;47.526;10.028;2024-03-29T03:40:57;2.28;;;0.25;;
63492;SDS011;49638;47.526;10.028;2024-03-29T03:43:57;0.52;;;0.20;;
63492;SDS011;49638;47.526;10.028;2024-03-29T03:46:58;0.35;;;0.30;;
63492;SDS011;49638;47.526;10.028;2024-03-29T03:49:58;0.20;;;0.10;;
63492;SDS011;49638;47.526;10.028;2024-03-29T03:52:58;0.52;;;0.32;;
63492;SDS011;49638;47.526;10.028;2024-03-29T03:55:59;0.30;;;0.30;;
63492;SDS011;49638;47.526;10.028;2024-03-29T03:58:59;0.68;;;0.30;;
63492;SDS011;49638;47.526;10.028;2024-03-29T04:01:59;0.30;;;0.25;;
63492;SDS011;49638;47.526;10.028;2024-03-29T04:05:00;1.60;;;0.30;;
63492;SDS011;49638;47.526;10.028;2024-03-29T04:08:00;0.28;;;0.20;;
63492;SDS011;49638;47.526;10.028;2024-03-29T04:11:03;0.25;;;0.25;;
63492;SDS011;49638;47.526;10.028;2024-03-29T04:14:04;0.73;;;0.20;;
63492;SDS011;49638;47.526;10.028;2024-03-29T04:17:04;0.38;;;0.25;;
63492;SDS011;49638;47.526;10.028;2024-03-29T04:20:04;0.13;;;0.13;;
63492;SDS011;49638;47.526;10.028;2024-03-29T04:23:05;0.22;;;0.22;;
63492;SDS011;49638;47.526;10.028;2024-03-29T04:26:06;1.05;;;0.20;;
63492;SDS011;49638;47.526;10.028;2024-03-29T04:29:07;0.20;;;0.20;;
63492;SDS011;49638;47.526;10.028;2024-03-29T04:32:07;1.02;;;0.17;;
63492;SDS011;49638;47.526;10.028;2024-03-29T04:35:07;0.85;;;0.20;;
63492;SDS011;49638;47.526;10.028;2024-03-29T04:38:08;0.30;;;0.30;;
63492;SDS011;49638;47.526;10.028;2024-03-29T04:41:08;0.20;;;0.20;;
63492;SDS011;49638;47.526;10.028;2024-03-29T04:44:08;1.00;;;0.25;;
63492;SDS011;49638;47.526;10.028;2024-03-29T04:47:09;0.60;;;0.20;;
63492;SDS011;49638;47.526;10.028;2024-03-29T04:50:09;0.20;;;0.20;;
63492;SDS011;49638;47.526;10.028;2024-03-29T04:53:09;1.65;;;0.20;;
63492;SDS011;49638;47.526;10.028;2024-03-29T04:56:10;1.08;;;0.40;;
63492;SDS011;49638;47.526;10.028;2024-03-29T04:59:10;0.95;;;0.32;;
63492;SDS011;49638;47.526;10.028;2024-03-29T05:02:10;0.47;;;0.28;;
63492;SDS011;49638;47.526;10.028;2024-03-29T05:05:10;0.30;;;0.20;;
63492;SDS011;49638;47.526;10.028;2024-03-29T05:08:11;1.73;;;0.30;;
63492;SDS011;49638;47.526;10.028;2024-03-29T05:11:13;0.20;;;0.20;;
63492;SDS011;49638;47.526;10.028;2024-03-29T05:14:15;0.32;;;0.20;;
63492;SDS011;49638;47.526;10.028;2024-03-29T05:17:19;0.85;;;0.30;;
63492;SDS011;49638;47.526;10.028;2024-03-29T05:20:25;0.43;;;0.20;;
63492;SDS011;49638;47.526;10.028;2024-03-29T05:23:25;0.77;;;0.30;;
63492;SDS011;49638;47.526;10.028;2024-03-29T05:26:25;0.20;;;0.20;;
63492;SDS011;49638;47.526;10.028;2024-03-29T05:29:26;1.00;;;0.32;;
63492;SDS011;49638;47.526;10.028;2024-03-29T05:32:26;0.38;;;0.20;;
63492;SDS011;49638;47.526;10.028;2024-03-29T05:35:26;0.20;;;0.15;;
63492;SDS011;49638;47.526;10.028;2024-03-29T05:38:26;0.88;;;0.47;;
63492;SDS011;49638;47.526;10.028;2024-03-29T05:41:27;0.55;;;0.30;;
63492;SDS011;49638;47.526;10.028;2024-03-29T05:44:27;1.30;;;0.30;;
63492;SDS011;49638;47.526;10.028;2024-03-29T05:47:27;0.30;;;0.30;;
63492;SDS011;49638;47.526;10.028;2024-03-29T05:50:27;0.93;;;0.32;;
63492;SDS011;49638;47.526;10.028;2024-03-29T05:53:28;0.20;;;0.20;;
63492;SDS011;49638;47.526;10.028;2024-03-29T05:56:29;0.30;;;0.30;;
63492;SDS011;49638;47.526;10.028;2024-03-29T05:59:29;0.28;;;0.28;;
63492;SDS011;49638;47.526;10.028;2024-03-29T06:02:29;1.05;;;0.30;;
63492;SDS011;49638;47.526;10.028;2024-03-29T06:05:30;0.22;;;0.22;;
63492;SDS011;49638;47.526;10.028;2024-03-29T06:08:30;1.02;;;0.30;;
63492;SDS011;49638;47.526;10.028;2024-03-29T06:11:30;0.60;;;0.20;;
63492;SDS011;49638;47.526;10.028;2024-03-29T06:14:31;0.40;;;0.30;;
63492;SDS011;49638;47.526;10.028;2024-03-29T06:17:50;2.10;;;0.40;;
63492;SDS011;49638;47.526;10.028;2024-03-29T06:20:51;0.13;;;0.13;;
63492;SDS011;49638;47.526;10.028;2024-03-29T06:23:51;0.75;;;0.40;;
63492;SDS011;49638;47.526;10.028;2024-03-29T06:26:51;0.40;;;0.20;;
63492;SDS011;49638;47.526;10.028;2024-03-29T06:29:52;0.90;;;0.35;;
63492;SDS011;49638;47.526;10.028;2024-03-29T06:32:53;2.35;;;0.32;;
63492;SDS011;49638;47.526;10.028;2024-03-29T06:35:54;0.22;;;0.22;;
63492;SDS011;49638;47.526;10.028;2024-03-29T06:38:57;0.30;;;0.30;;
63492;SDS011;49638;47.526;10.028;2024-03-29T06:41:57;0.82;;;0.40;;
63492;SDS011;49638;47.526;10.028;2024-03-29T06:44:57;0.30;;;0.30;;
63492;SDS011;49638;47.526;10.028;2024-03-29T06:47:58;2.13;;;0.50;;
63492;SDS011;49638;47.526;10.028;2024-03-29T06:51:00;0.70;;;0.40;;
63492;SDS011;49638;47.526;10.028;2024-03-29T06:54:00;1.88;;;0.80;;
63492;SDS011;49638;47.526;10.028;2024-03-29T06:57:00;1.38;;;0.50;;
63492;SDS011;49638;47.526;10.028;2024-03-29T07:00:01;0.43;;;0.40;;
63492;SDS011;49638;47.526;10.028;2024-03-29T07:03:03;0.30;;;0.30;;
63492;SDS011;49638;47.526;10.028;2024-03-29T07:06:03;0.50;;;0.22;;
63492;SDS011;49638;47.526;10.028;2024-03-29T07:09:04;0.93;;;0.30;;
63492;SDS011;49638;47.526;10.028;2024-03-29T07:12:04;0.57;;;0.20;;
63492;SDS011;49638;47.526;10.028;2024-03-29T07:15:05;1.45;;;0.40;;
63492;SDS011;49638;47.526;10.028;2024-03-29T07:18:05;0.45;;;0.30;;
63492;SDS011;49638;47.526;10.028;2024-03-29T07:21:06;0.55;;;0.30;;
63492;SDS011;49638;47.526;10.028;2024-03-29T07:24:06;2.22;;;0.47;;
63492;SDS011;49638;47.526;10.028;2024-03-29T07:27:08;1.08;;;0.32;;
63492;SDS011;49638;47.526;10.028;2024-03-29T07:30:09;1.58;;;1.00;;
63492;SDS011;49638;47.526;10.028;2024-03-29T07:33:11;0.85;;;0.30;;
63492;SDS011;49638;47.526;10.028;2024-03-29T07:36:15;1.77;;;0.20;;
63492;SDS011;49638;47.526;10.028;2024-03-29T07:39:16;1.73;;;0.40;;
63492;SDS011;49638;47.526;10.028;2024-03-29T07:42:17;0.25;;;0.20;;
63492;SDS011;49638;47.526;10.028;2024-03-29T07:45:17;0.50;;;0.20;;
63492;SDS011;49638;47.526;10.028;2024-03-29T07:48:18;0.40;;;0.20;;
63492;SDS011;49638;47.526;10.028;2024-03-29T07:51:18;1.55;;;0.32;;
63492;SDS011;49638;47.526;10.028;2024-03-29T07:54:18;0.50;;;0.22;;
63492;SDS011;49638;47.526;10.028;2024-03-29T07:57:19;0.52;;;0.30;;
63492;SDS011;49638;47.526;10.028;2024-03-29T08:00:19;0.17;;;0.17;;
63492;SDS011;49638;47.526;10.028;2024-03-29T08:03:19;1.17;;;0.20;;
63492;SDS011;49638;47.526;10.028;2024-03-29T08:06:20;1.38;;;0.30;;
63492;SDS011;49638;47.526;10.028;2024-03-29T08:09:20;0.20;;;0.10;;
63492;SDS011;49638;47.526;10.028;2024-03-29T08:12:20;0.38;;;0.28;;
63492;SDS011;49638;47.526;10.028;2024-03-29T08:15:20;0.98;;;0.30;;
63492;SDS011;49638;47.526;10.028;2024-03-29T08:18:21;3.60;;;0.22;;
63492;SDS011;49638;47.526;10.028;2024-03-29T08:21:21;0.50;;;0.20;;
63492;SDS011;49638;47.526;10.028;2024-03-29T08:24:21;0.35;;;0.20;;
63492;SDS011;49638;47.526;10.028;2024-03-29T08:27:21;0.13;;;0.13;;
63492;SDS011;49638;47.526;10.028;2024-03-29T08:30:22;0.20;;;0.20;;
63492;SDS011;49638;47.526;10.028;2024-03-29T08:33:22;1.23;;;0.60;;
63492;SDS011;49638;47.526;10.028;2024-03-29T08:36:23;0.22;;;0.17;;
63492;SDS011;49638;47.526;10.028;2024-03-29T08:39:23;0.45;;;0.20;;
63492;SDS011;49638;47.526;10.028;2024-03-29T08:42:23;0.30;;;0.20;;
63492;SDS011;49638;47.526;10.028;2024-03-29T08:45:24;0.45;;;0.13;;
63492;SDS011;49638;47.526;10.028;2024-03-29T08:48:26;0.32;;;0.22;;
63492;SDS011;49638;47.526;10.028;2024-03-29T08:51:26;0.10;;;0.10;;
63492;SDS011;49638;47.526;10.028;2024-03-29T08:54:27;0.30;;;0.10;;
63492;SDS011;49638;47.526;10.028;2024-03-29T08:57:28;3.42;;;0.20;;
63492;SDS011;49638;47.526;10.028;2024-03-29T09:00:28;0.25;;;0.22;;
63492;SDS011;49638;47.526;10.028;2024-03-29T09:03:30;2.00;;;1.85;;
63492;SDS011;49638;47.526;10.028;2024-03-29T09:06:31;0.40;;;0.30;;
63492;SDS011;49638;47.526;10.028;2024-03-29T09:09:32;0.35;;;0.20;;
63492;SDS011;49638;47.526;10.028;2024-03-29T09:12:32;1.35;;;0.15;;
63492;SDS011;49638;47.526;10.028;2024-03-29T09:15:32;0.50;;;0.20;;
63492;SDS011;49638;47.526;10.028;2024-03-29T09:18:33;3.67;;;0.22;;
63492;SDS011;49638;47.526;10.028;2024-03-29T09:21:33;1.45;;;0.20;;
63492;SDS011;49638;47.526;10.028;2024-03-29T09:24:33;1.35;;;0.20;;
63492;SDS011;49638;47.526;10.028;2024-03-29T09:27:34;0.10;;;0.10;;
63492;SDS011;49638;47.526;10.028;2024-03-29T09:30:36;0.10;;;0.10;;
63492;SDS011;49638;47.526;10.028;2024-03-29T09:33:36;0.20;;;0.10;;
63492;SDS011;49638;47.526;10.028;2024-03-29T09:36:36;0.20;;;0.17;;
63492;SDS011;49638;47.526;10.028;2024-03-29T09:39:37;0.10;;;0.10;;
63492;SDS011;49638;47.526;10.028;2024-03-29T09:42:38;0.00;;;0.00;;
63492;SDS011;49638;47.526;10.028;2024-03-29T09:45:39;1.38;;;0.10;;
63492;SDS011;49638;47.526;10.028;2024-03-29T09:48:40;3.47;;;0.20;;
63492;SDS011;49638;47.526;10.028;2024-03-29T09:51:41;1.10;;;0.50;;
63492;SDS011;49638;47.526;10.028;2024-03-29T09:54:42;2.55;;;0.70;;
63492;SDS011;49638;47.526;10.028;2024-03-29T09:57:43;2.63;;;0.55;;
63492;SDS011;49638;47.526;10.028;2024-03-29T10:00:43;1.10;;;0.50;;
63492;SDS011;49638;47.526;10.028;2024-03-29T10:03:45;1.90;;;0.60;;
63492;SDS011;49638;47.526;10.028;2024-03-29T10:06:51;0.52;;;0.52;;
63492;SDS011;49638;47.526;10.028;2024-03-29T10:09:51;1.05;;;0.50;;
63492;SDS011;49638;47.526;10.028;2024-03-29T10:12:53;0.90;;;0.60;;
63492;SDS011;49638;47.526;10.028;2024-03-29T10:15:53;0.40;;;0.40;;
63492;SDS011;49638;47.526;10.028;2024-03-29T10:19:00;0.20;;;0.20;;
63492;SDS011;49638;47.526;10.028;2024-03-29T10:22:07;2.97;;;1.30;;
63492;SDS011;49638;47.526;10.028;2024-03-29T10:25:07;0.47;;;0.10;;
63492;SDS011;49638;47.526;10.028;2024-03-29T10:28:07;2.28;;;0.60;;
63492;SDS011;49638;47.526;10.028;2024-03-29T10:31:08;3.78;;;0.60;;
63492;SDS011;49638;47.526;10.028;2024-03-29T10:34:08;0.68;;;0.50;;
63492;SDS011;49638;47.526;10.028;2024-03-29T10:37:08;0.70;;;0.70;;
63492;SDS011;49638;47.526;10.028;2024-03-29T10:40:10;0.35;;;0.35;;
63492;SDS011;49638;47.526;10.028;2024-03-29T10:43:11;0.32;;;0.20;;
63492;SDS011;49638;47.526;10.028;2024-03-29T10:46:16;1.70;;;0.38;;
63492;SDS011;49638;47.526;10.028;2024-03-29T10:49:18;1.35;;;0.38;;
63492;SDS011;49638;47.526;10.028;2024-03-29T10:52:18;1.92;;;0.40;;
63492;SDS011;49638;47.526;10.028;2024-03-29T10:55:18;1.98;;;1.30;;
63492;SDS011;49638;47.526;10.028;2024-03-29T10:58:20;0.82;;;0.70;;
63492;SDS011;49638;47.526;10.028;2024-03-29T11:01:24;1.52;;;0.40;;
63492;SDS011;49638;47.526;10.028;2024-03-29T11:04:29;0.30;;;0.20;;
63492;SDS011;49638;47.526;10.028;2024-03-29T11:07:34;1.42;;;0.20;;
63492;SDS011;49638;47.526;10.028;2024-03-29T11:10:40;0.10;;;0.10;;
63492;SDS011;49638;47.526;10.028;2024-03-29T11:16:57;0.70;;;0.20;;
63492;SDS011;49638;47.526;10.028;2024-03-29T11:19:59;0.40;;;0.30;;
63492;SDS011;49638;47.526;10.028;2024-03-29T11:23:01;1.25;;;0.40;;
63492;SDS011;49638;47.526;10.028;2024-03-29T11:26:06;0.20;;;0.10;;
63492;SDS011;49638;47.526;10.028;2024-03-29T11:29:06;1.10;;;0.73;;
63492;SDS011;49638;47.526;10.028;2024-03-29T11:32:36;0.13;;;0.13;;
63492;SDS011;49638;47.526;10.028;2024-03-29T11:35:39;0.80;;;0.10;;
63492;SDS011;49638;47.526;10.028;2024-03-29T11:38:40;1.25;;;0.38;;
63492;SDS011;49638;47.526;10.028;2024-03-29T11:41:45;0.10;;;0.10;;
63492;SDS011;49638;47.526;10.028;2024-03-29T11:44:47;0.38;;;0.30;;
63492;SDS011;49638;47.526;10.028;2024-03-29T11:47:47;0.25;;;0.25;;
63492;SDS011;49638;47.526;10.028;2024-03-29T11:50:49;0.90;;;0.20;;
63492;SDS011;49638;47.526;10.028;2024-03-29T11:53:49;0.15;;;0.10;;
63492;SDS011;49638;47.526;10.028;2024-03-29T11:56:53;0.98;;;0.20;;
63492;SDS011;49638;47.526;10.028;2024-03-29T11:59:53;0.40;;;0.20;;
63492;SDS011;49638;47.526;10.028;2024-03-29T12:02:53;0.10;;;0.10;;
63492;SDS011;49638;47.526;10.028;2024-03-29T12:05:54;0.28;;;0.10;;
63492;SDS011;49638;47.526;10.028;2024-03-29T12:08:58;0.10;;;0.10;;
63492;SDS011;49638;47.526;10.028;2024-03-29T12:11:58;0.10;;;0.10;;
63492;SDS011;49638;47.526;10.028;2024-03-29T12:15:05;0.38;;;0.10;;
63492;SDS011;49638;47.526;10.028;2024-03-29T12:18:06;0.10;;;0.10;;
63492;SDS011;49638;47.526;10.028;2024-03-29T12:21:06;0.10;;;0.10;;
63492;SDS011;49638;47.526;10.028;2024-03-29T12:24:07;0.00;;;0.00;;
63492;SDS011;49638;47.526;10.028;2024-03-29T12:27:07;1.10;;;0.30;;
63492;SDS011;49638;47.526;10.028;2024-03-29T12:30:08;0.10;;;0.10;;
63492;SDS011;49638;47.526;10.028;2024-03-29T12:33:13;1.25;;;0.20;;
63492;SDS011;49638;47.526;10.028;2024-03-29T12:36:15;0.10;;;0.10;;
63492;SDS011;49638;47.526;10.028;2024-03-29T12:39:17;1.30;;;0.20;;
63492;SDS011;49638;47.526;10.028;2024-03-29T12:42:17;0.10;;;0.10;;
63492;SDS011;49638;47.526;10.028;2024-03-29T12:45:18;0.10;;;0.10;;
63492;SDS011;49638;47.526;10.028;2024-03-29T12:48:20;0.30;;;0.10;;
63492;SDS011;49638;47.526;10.028;2024-03-29T12:51:21;0.20;;;0.20;;
63492;SDS011;49638;47.526;10.028;2024-03-29T12:54:22;0.15;;;0.15;;
63492;SDS011;49638;47.526;10.028;2024-03-29T12:57:23;1.08;;;0.20;;
63492;SDS011;49638;47.526;10.028;2024-03-29T13:00:23;0.20;;;0.20;;
63492;SDS011;49638;47.526;10.028;2024-03-29T13:03:24;0.45;;;0.10;;
63492;SDS011;49638;47.526;10.028;2024-03-29T13:06:24;0.10;;;0.10;;
63492;SDS011;49638;47.526;10.028;2024-03-29T13:09:24;0.10;;;0.10;;
63492;SDS011;49638;47.526;10.028;2024-03-29T13:12:24;0.30;;;0.10;;
63492;SDS011;49638;47.526;10.028;2024-03-29T13:15:26;0.08;;;0.08;;
63492;SDS011;49638;47.526;10.028;2024-03-29T13:18:27;0.00;;;0.00;;
63492;SDS011;49638;47.526;10.028;2024-03-29T13:21:27;0.15;;;0.15;;
63492;SDS011;49638;47.526;10.028;2024-03-29T13:24:27;0.20;;;0.20;;
63492;SDS011;49638;47.526;10.028;2024-03-29T13:27:28;2.25;;;0.22;;
63492;SDS011;49638;47.526;10.028;2024-03-29T13:30:30;1.50;;;0.10;;
63492;SDS011;49638;47.526;10.028;2024-03-29T13:33:30;0.32;;;0.17;;
63492;SDS011;49638;47.526;10.028;2024-03-29T13:36:31;0.20;;;0.20;;
63492;SDS011;49638;47.526;10.028;2024-03-29T13:39:31;0.43;;;0.17;;
63492;SDS011;49638;47.526;10.028;2024-03-29T13:42:32;1.27;;;0.20;;
63492;SDS011;49638;47.526;10.028;2024-03-29T13:45:33;0.20;;;0.20;;
63492;SDS011;49638;47.526;10.028;2024-03-29T13:48:33;0.63;;;0.30;;
63492;SDS011;49638;47.526;10.028;2024-03-29T13:51:33;1.77;;;0.30;;
63492;SDS011;49638;47.526;10.028;2024-03-29T13:54:34;1.15;;;0.30;;
63492;SDS011;49638;47.526;10.028;2024-03-29T13:57:34;0.82;;;0.32;;
63492;SDS011;49638;47.526;10.028;2024-03-29T14:00:34;2.10;;;0.40;;
63492;SDS011;49638;47.526;10.028;2024-03-29T14:03:34;2.60;;;0.50;;
63492;SDS011;49638;47.526;10.028;2024-03-29T14:06:35;5.32;;;0.47;;
63492;SDS011;49638;47.526;10.028;2024-03-29T14:09:35;9.40;;;1.55;;
63492;SDS011;49638;47.526;10.028;2024-03-29T14:12:35;9.50;;;1.70;;
63492;SDS011;49638;47.526;10.028;2024-03-29T14:15:35;11.25;;;1.30;;
63492;SDS011;49638;47.526;10.028;2024-03-29T14:18:36;9.95;;;1.83;;
63492;SDS011;49638;47.526;10.028;2024-03-29T14:21:37;24.98;;;2.30;;
63492;SDS011;49638;47.526;10.028;2024-03-29T14:24:37;14.57;;;2.28;;
63492;SDS011;49638;47.526;10.028;2024-03-29T14:27:39;18.95;;;2.42;;
63492;SDS011;49638;47.526;10.028;2024-03-29T14:30:54;21.55;;;3.15;;
63492;SDS011;49638;47.526;10.028;2024-03-29T14:33:54;25.15;;;3.70;;
63492;SDS011;49638;47.526;10.028;2024-03-29T14:36:55;27.92;;;3.83;;
63492;SDS011;49638;47.526;10.028;2024-03-29T14:39:55;41.38;;;4.63;;
63492;SDS011;49638;47.526;10.028;2024-03-29T14:42:55;30.73;;;4.55;;
63492;SDS011;49638;47.526;10.028;2024-03-29T14:45:57;34.90;;;4.55;;
63492;SDS011;49638;47.526;10.028;2024-03-29T14:48:59;44.58;;;4.45;;
63492;SDS011;49638;47.526;10.028;2024-03-29T14:52:00;46.97;;;5.25;;
63492;SDS011;49638;47.526;10.028;2024-03-29T14:55:01;47.60;;;5.97;;
63492;SDS011;49638;47.526;10.028;2024-03-29T14:58:01;56.85;;;5.40;;
63492;SDS011;49638;47.526;10.028;2024-03-29T15:01:02;46.28;;;6.10;;
63492;SDS011;49638;47.526;10.028;2024-03-29T15:04:02;64.28;;;6.68;;
63492;SDS011;49638;47.526;10.028;2024-03-29T15:07:03;52.25;;;6.75;;
63492;SDS011;49638;47.526;10.028;2024-03-29T15:10:04;68.55;;;6.97;;
63492;SDS011;49638;47.526;10.028;2024-03-29T15:13:10;64.03;;;7.43;;
63492;SDS011;49638;47.526;10.028;2024-03-29T15:16:10;61.70;;;7.47;;
63492;SDS011;49638;47.526;10.028;2024-03-29T15:19:10;55.33;;;6.50;;
63492;SDS011;49638;47.526;10.028;2024-03-29T15:22:11;64.47;;;7.38;;
63492;SDS011;49638;47.526;10.028;2024-03-29T15:25:11;59.42;;;6.50;;
63492;SDS011;49638;47.526;10.028;2024-03-29T15:28:11;54.70;;;6.75;;
63492;SDS011;49638;47.526;10.028;2024-03-29T15:31:15;56.53;;;6.55;;
63492;SDS011;49638;47.526;10.028;2024-03-29T15:34:19;59.13;;;7.32;;
63492;SDS011;49638;47.526;10.028;2024-03-29T15:37:20;53.53;;;7.07;;
63492;SDS011;49638;47.526;10.028;2024-03-29T15:40:21;56.58;;;6.45;;
63492;SDS011;49638;47.526;10.028;2024-03-29T15:43:21;52.88;;;6.10;;
63492;SDS011;49638;47.526;10.028;2024-03-29T15:46:21;55.38;;;6.07;;
63492;SDS011;49638;47.526;10.028;2024-03-29T15:49:22;52.65;;;6.82;;
63492;SDS011;49638;47.526;10.028;2024-03-29T15:52:22;64.07;;;7.27;;
63492;SDS011;49638;47.526;10.028;2024-03-29T15:55:22;68.00;;;6.55;;
63492;SDS011;49638;47.526;10.028;2024-03-29T15:58:22;69.05;;;7.07;;
63492;SDS011;49638;47.526;10.028;2024-03-29T16:01:23;65.63;;;8.32;;
63492;SDS011;49638;47.526;10.028;2024-03-29T16:04:24;67.55;;;8.90;;
63492;SDS011;49638;47.526;10.028;2024-03-29T16:07:25;72.22;;;9.48;;
63492;SDS011;49638;47.526;10.028;2024-03-29T16:10:25;81.05;;;8.23;;
63492;SDS011;49638;47.526;10.028;2024-03-29T16:13:26;81.15;;;8.07;;
63492;SDS011;49638;47.526;10.028;2024-03-29T16:16:27;88.18;;;8.27;;
63492;SDS011;49638;47.526;10.028;2024-03-29T16:19:28;78.72;;;8.43;;
63492;SDS011;49638;47.526;10.028;2024-03-29T16:22:28;78.88;;;9.30;;
63492;SDS011;49638;47.526;10.028;2024-03-29T16:25:28;74.13;;;9.40;;
63492;SDS011;49638;47.526;10.028;2024-03-29T16:28:28;94.25;;;11.05;;
63492;SDS011;49638;47.526;10.028;2024-03-29T16:31:30;98.82;;;11.25;;
63492;SDS011;49638;47.526;10.028;2024-03-29T16:34:30;105.35;;;11.75;;
63492;SDS011;49638;47.526;10.028;2024-03-29T16:37:30;105.00;;;13.88;;
63492;SDS011;49638;47.526;10.028;2024-03-29T16:40:31;108.38;;;12.70;;
63492;SDS011;49638;47.526;10.028;2024-03-29T16:43:31;119.35;;;14.75;;
63492;SDS011;49638;47.526;10.028;2024-03-29T16:46:31;133.43;;;18.48;;
63492;SDS011;49638;47.526;10.028;2024-03-29T16:49:31;142.73;;;14.60;;
63492;SDS011;49638;47.526;10.028;2024-03-29T16:52:32;136.77;;;13.93;;
63492;SDS011;49638;47.526;10.028;2024-03-29T16:55:32;138.57;;;15.55;;
63492;SDS011;49638;47.526;10.028;2024-03-29T16:58:34;141.27;;;15.15;;
63492;SDS011;49638;47.526;10.028;2024-03-29T17:01:34;134.93;;;14.55;;
63492;SDS011;49638;47.526;10.028;2024-03-29T17:04:34;144.15;;;15.95;;
63492;SDS011;49638;47.526;10.028;2024-03-29T17:07:35;124.07;;;13.98;;
63492;SDS011;49638;47.526;10.028;2024-03-29T17:10:35;135.23;;;16.52;;
63492;SDS011;49638;47.526;10.028;2024-03-29T17:13:35;155.07;;;18.38;;
63492;SDS011;49638;47.526;10.028;2024-03-29T17:16:36;139.10;;;15.05;;
63492;SDS011;49638;47.526;10.028;2024-03-29T17:19:36;135.40;;;16.50;;
63492;SDS011;49638;47.526;10.028;2024-03-29T17:22:37;160.45;;;17.80;;
63492;SDS011;49638;47.526;10.028;2024-03-29T17:25:40;182.95;;;19.92;;
63492;SDS011;49638;47.526;10.028;2024-03-29T17:28:40;188.27;;;18.73;;
63492;SDS011;49638;47.526;10.028;2024-03-29T17:31:43;153.63;;;20.02;;
63492;SDS011;49638;47.526;10.028;2024-03-29T17:34:44;181.20;;;19.55;;
63492;SDS011;49638;47.526;10.028;2024-03-29T17:37:44;181.15;;;18.48;;
63492;SDS011;49638;47.526;10.028;2024-03-29T17:40:44;191.20;;;20.77;;
63492;SDS011;49638;47.526;10.028;2024-03-29T17:43:44;224.02;;;20.95;;
63492;SDS011;49638;47.526;10.028;2024-03-29T17:46:45;221.98;;;21.98;;
63492;SDS011;49638;47.526;10.028;2024-03-29T17:49:46;179.02;;;19.48;;
63492;SDS011;49638;47.526;10.028;2024-03-29T17:52:47;213.50;;;34.35;;